sensor_id;sensor_type;location;lat;lon;timestamp;P1;durP1;ratioP1;P2;durP2;ratioP2
39022;SDS011;25908;51.984;5.928;2023-02-28T00:00:15;5.47;;;2.63;;
39022;SDS011;25908;51.984;5.928;2023-02-28T00:02:41;6.95;;;2.83;;
39022;SDS011;25908;51.984;5.928;2023-02-28T00:05:09;5.60;;;2.85;;
39022;SDS011;25908;51.984;5.928;2023-02-28T00:07:36;7.05;;;3.15;;
39022;SDS011;25908;51.984;5.928;2023-02-28T00:10:02;6.97;;;2.92;;
39022;SDS011;25908;51.984;5.928;2023-02-28T00:12:31;6.63;;;2.80;;
39022;SDS011;25908;51.984;5.928;2023-02-28T00:14:57;6.03;;;2.88;;
39022;SDS011;25908;51.984;5.928;2023-02-28T00:17:22;5.07;;;2.78;;
39022;SDS011;25908;51.984;5.928;2023-02-28T00:19:48;5.85;;;2.90;;
39022;SDS011;25908;51.984;5.928;2023-02-28T00:22:15;5.40;;;2.60;;
39022;SDS011;25908;51.984;5.928;2023-02-28T00:24:41;5.00;;;2.55;;
39022;SDS011;25908;51.984;5.928;2023-02-28T00:27:07;7.78;;;3.17;;
39022;SDS011;25908;51.984;5.928;2023-02-28T00:29:32;7.55;;;3.10;;
39022;SDS011;25908;51.984;5.928;2023-02-28T00:31:58;5.53;;;2.85;;
39022;SDS011;25908;51.984;5.928;2023-02-28T00:34:23;5.40;;;2.47;;
39022;SDS011;25908;51.984;5.928;2023-02-28T00:36:49;8.70;;;2.70;;
39022;SDS011;25908;51.984;5.928;2023-02-28T00:39:15;8.00;;;3.47;;
39022;SDS011;25908;51.984;5.928;2023-02-28T00:41:40;6.47;;;3.17;;
39022;SDS011;25908;51.984;5.928;2023-02-28T00:44:06;6.80;;;3.25;;
39022;SDS011;25908;51.984;5.928;2023-02-28T00:46:31;8.13;;;3.00;;
39022;SDS011;25908;51.984;5.928;2023-02-28T00:48:57;7.20;;;3.28;;
39022;SDS011;25908;51.984;5.928;2023-02-28T00:51:23;7.05;;;3.15;;
39022;SDS011;25908;51.984;5.928;2023-02-28T00:53:48;8.55;;;3.15;;
39022;SDS011;25908;51.984;5.928;2023-02-28T00:56:14;7.43;;;3.40;;
39022;SDS011;25908;51.984;5.928;2023-02-28T00:58:39;5.72;;;3.00;;
39022;SDS011;25908;51.984;5.928;2023-02-28T01:01:05;7.20;;;3.28;;
39022;SDS011;25908;51.984;5.928;2023-02-28T01:03:31;6.45;;;2.90;;
39022;SDS011;25908;51.984;5.928;2023-02-28T01:05:56;6.80;;;3.10;;
39022;SDS011;25908;51.984;5.928;2023-02-28T01:08:22;7.50;;;3.15;;
39022;SDS011;25908;51.984;5.928;2023-02-28T01:10:48;4.95;;;3.28;;
39022;SDS011;25908;51.984;5.928;2023-02-28T01:13:14;9.98;;;3.35;;
39022;SDS011;25908;51.984;5.928;2023-02-28T01:15:42;8.75;;;3.40;;
39022;SDS011;25908;51.984;5.928;2023-02-28T01:18:11;6.40;;;3.30;;
39022;SDS011;25908;51.984;5.928;2023-02-28T01:20:37;6.72;;;3.20;;
39022;SDS011;25908;51.984;5.928;2023-02-28T01:23:03;5.03;;;2.75;;
39022;SDS011;25908;51.984;5.928;2023-02-28T01:25:28;7.22;;;3.45;;
39022;SDS011;25908;51.984;5.928;2023-02-28T01:27:54;5.30;;;3.20;;
39022;SDS011;25908;51.984;5.928;2023-02-28T01:30:20;7.35;;;3.45;;
39022;SDS011;25908;51.984;5.928;2023-02-28T01:32:45;7.50;;;3.15;;
39022;SDS011;25908;51.984;5.928;2023-02-28T01:35:11;4.68;;;2.97;;
39022;SDS011;25908;51.984;5.928;2023-02-28T01:37:36;7.95;;;3.53;;
39022;SDS011;25908;51.984;5.928;2023-02-28T01:40:02;7.50;;;3.38;;
39022;SDS011;25908;51.984;5.928;2023-02-28T01:42:28;5.55;;;3.20;;
39022;SDS011;25908;51.984;5.928;2023-02-28T01:47:35;6.03;;;3.13;;
39022;SDS011;25908;51.984;5.928;2023-02-28T01:50:06;5.53;;;3.22;;
39022;SDS011;25908;51.984;5.928;2023-02-28T01:52:38;8.50;;;3.55;;
39022;SDS011;25908;51.984;5.928;2023-02-28T01:55:05;8.70;;;3.40;;
39022;SDS011;25908;51.984;5.928;2023-02-28T01:57:32;9.27;;;3.83;;
39022;SDS011;25908;51.984;5.928;2023-02-28T02:02:32;6.32;;;3.10;;
39022;SDS011;25908;51.984;5.928;2023-02-28T02:05:03;6.03;;;3.13;;
39022;SDS011;25908;51.984;5.928;2023-02-28T02:07:32;9.90;;;3.67;;
39022;SDS011;25908;51.984;5.928;2023-02-28T02:10:16;5.60;;;3.13;;
39022;SDS011;25908;51.984;5.928;2023-02-28T02:15:32;6.65;;;3.35;;
39022;SDS011;25908;51.984;5.928;2023-02-28T02:29:31;6.93;;;3.53;;
39022;SDS011;25908;51.984;5.928;2023-02-28T02:32:45;5.75;;;3.20;;
39022;SDS011;25908;51.984;5.928;2023-02-28T02:35:11;9.95;;;4.85;;
39022;SDS011;25908;51.984;5.928;2023-02-28T02:40:22;6.50;;;3.35;;
39022;SDS011;25908;51.984;5.928;2023-02-28T02:43:01;10.70;;;3.67;;
39022;SDS011;25908;51.984;5.928;2023-02-28T02:45:38;8.10;;;3.45;;
39022;SDS011;25908;51.984;5.928;2023-02-28T02:48:16;5.38;;;3.03;;
39022;SDS011;25908;51.984;5.928;2023-02-28T02:50:46;6.78;;;3.40;;
39022;SDS011;25908;51.984;5.928;2023-02-28T02:55:44;6.90;;;3.50;;
39022;SDS011;25908;51.984;5.928;2023-02-28T02:58:17;7.00;;;4.22;;
39022;SDS011;25908;51.984;5.928;2023-02-28T03:00:46;6.15;;;3.58;;
39022;SDS011;25908;51.984;5.928;2023-02-28T03:03:18;7.25;;;3.30;;
39022;SDS011;25908;51.984;5.928;2023-02-28T03:05:54;8.80;;;4.05;;
39022;SDS011;25908;51.984;5.928;2023-02-28T03:08:21;6.07;;;3.67;;
39022;SDS011;25908;51.984;5.928;2023-02-28T03:11:00;7.18;;;4.43;;
39022;SDS011;25908;51.984;5.928;2023-02-28T03:21:12;8.60;;;3.80;;
39022;SDS011;25908;51.984;5.928;2023-02-28T03:23:51;6.82;;;3.40;;
39022;SDS011;25908;51.984;5.928;2023-02-28T03:26:24;7.47;;;4.05;;
39022;SDS011;25908;51.984;5.928;2023-02-28T03:28:59;6.95;;;4.43;;
39022;SDS011;25908;51.984;5.928;2023-02-28T03:34:03;6.40;;;3.53;;
39022;SDS011;25908;51.984;5.928;2023-02-28T03:36:36;6.95;;;4.43;;
39022;SDS011;25908;51.984;5.928;2023-02-28T03:39:09;5.68;;;3.40;;
39022;SDS011;25908;51.984;5.928;2023-02-28T03:41:47;8.88;;;4.20;;
39022;SDS011;25908;51.984;5.928;2023-02-28T03:44:21;6.13;;;3.13;;
39022;SDS011;25908;51.984;5.928;2023-02-28T03:46:54;7.97;;;3.55;;
39022;SDS011;25908;51.984;5.928;2023-02-28T03:49:40;6.57;;;3.63;;
39022;SDS011;25908;51.984;5.928;2023-02-28T03:52:19;10.05;;;3.50;;
39022;SDS011;25908;51.984;5.928;2023-02-28T04:00:08;6.93;;;2.75;;
39022;SDS011;25908;51.984;5.928;2023-02-28T04:03:01;5.15;;;2.88;;
39022;SDS011;25908;51.984;5.928;2023-02-28T04:05:27;5.93;;;2.78;;
39022;SDS011;25908;51.984;5.928;2023-02-28T04:07:54;8.15;;;2.70;;
39022;SDS011;25908;51.984;5.928;2023-02-28T04:10:27;6.63;;;2.65;;
39022;SDS011;25908;51.984;5.928;2023-02-28T04:12:53;6.63;;;2.85;;
39022;SDS011;25908;51.984;5.928;2023-02-28T04:15:18;5.75;;;2.70;;
39022;SDS011;25908;51.984;5.928;2023-02-28T04:17:47;6.90;;;2.45;;
39022;SDS011;25908;51.984;5.928;2023-02-28T04:20:13;4.05;;;2.28;;
39022;SDS011;25908;51.984;5.928;2023-02-28T04:22:38;4.40;;;2.53;;
39022;SDS011;25908;51.984;5.928;2023-02-28T04:25:04;4.82;;;2.30;;
39022;SDS011;25908;51.984;5.928;2023-02-28T04:27:30;5.07;;;2.45;;
39022;SDS011;25908;51.984;5.928;2023-02-28T04:29:56;4.53;;;2.35;;
39022;SDS011;25908;51.984;5.928;2023-02-28T04:32:21;3.97;;;2.10;;
39022;SDS011;25908;51.984;5.928;2023-02-28T04:34:47;6.22;;;2.10;;
39022;SDS011;25908;51.984;5.928;2023-02-28T04:37:12;9.65;;;3.80;;
39022;SDS011;25908;51.984;5.928;2023-02-28T04:39:38;4.90;;;2.13;;
39022;SDS011;25908;51.984;5.928;2023-02-28T04:42:04;4.88;;;2.00;;
39022;SDS011;25908;51.984;5.928;2023-02-28T04:44:30;4.20;;;2.30;;
39022;SDS011;25908;51.984;5.928;2023-02-28T04:46:56;4.78;;;2.20;;
39022;SDS011;25908;51.984;5.928;2023-02-28T04:49:22;5.95;;;2.40;;
39022;SDS011;25908;51.984;5.928;2023-02-28T04:51:47;3.95;;;1.88;;
39022;SDS011;25908;51.984;5.928;2023-02-28T04:54:14;5.32;;;2.10;;
39022;SDS011;25908;51.984;5.928;2023-02-28T04:56:41;3.95;;;1.75;;
39022;SDS011;25908;51.984;5.928;2023-02-28T04:59:06;4.70;;;2.28;;
39022;SDS011;25908;51.984;5.928;2023-02-28T05:01:33;4.15;;;2.40;;
39022;SDS011;25908;51.984;5.928;2023-02-28T05:04:00;5.28;;;2.25;;
39022;SDS011;25908;51.984;5.928;2023-02-28T05:06:28;4.90;;;2.22;;
39022;SDS011;25908;51.984;5.928;2023-02-28T05:08:54;5.93;;;2.28;;
39022;SDS011;25908;51.984;5.928;2023-02-28T05:11:25;4.75;;;1.80;;
39022;SDS011;25908;51.984;5.928;2023-02-28T05:13:51;4.55;;;2.03;;
39022;SDS011;25908;51.984;5.928;2023-02-28T05:16:19;4.03;;;1.85;;
39022;SDS011;25908;51.984;5.928;2023-02-28T05:18:45;5.63;;;2.15;;
39022;SDS011;25908;51.984;5.928;2023-02-28T05:21:25;4.95;;;2.15;;
39022;SDS011;25908;51.984;5.928;2023-02-28T05:23:51;4.80;;;1.58;;
39022;SDS011;25908;51.984;5.928;2023-02-28T05:26:17;4.45;;;1.70;;
39022;SDS011;25908;51.984;5.928;2023-02-28T05:28:42;4.35;;;1.70;;
39022;SDS011;25908;51.984;5.928;2023-02-28T05:31:10;3.90;;;1.92;;
39022;SDS011;25908;51.984;5.928;2023-02-28T05:33:36;4.97;;;2.00;;
39022;SDS011;25908;51.984;5.928;2023-02-28T05:36:03;3.85;;;2.00;;
39022;SDS011;25908;51.984;5.928;2023-02-28T05:38:29;4.63;;;1.65;;
39022;SDS011;25908;51.984;5.928;2023-02-28T05:40:54;4.82;;;1.90;;
39022;SDS011;25908;51.984;5.928;2023-02-28T05:43:21;3.88;;;1.83;;
39022;SDS011;25908;51.984;5.928;2023-02-28T05:45:46;4.22;;;1.45;;
39022;SDS011;25908;51.984;5.928;2023-02-28T05:48:12;4.03;;;1.42;;
39022;SDS011;25908;51.984;5.928;2023-02-28T05:50:38;3.85;;;1.75;;
39022;SDS011;25908;51.984;5.928;2023-02-28T05:53:03;4.82;;;1.77;;
39022;SDS011;25908;51.984;5.928;2023-02-28T05:55:29;3.15;;;1.40;;
39022;SDS011;25908;51.984;5.928;2023-02-28T05:57:54;4.07;;;1.73;;
39022;SDS011;25908;51.984;5.928;2023-02-28T06:00:20;4.63;;;1.42;;
39022;SDS011;25908;51.984;5.928;2023-02-28T06:02:46;5.00;;;2.00;;
39022;SDS011;25908;51.984;5.928;2023-02-28T06:05:16;4.18;;;1.73;;
39022;SDS011;25908;51.984;5.928;2023-02-28T06:07:42;3.25;;;1.40;;
39022;SDS011;25908;51.984;5.928;2023-02-28T06:10:09;4.35;;;1.48;;
39022;SDS011;25908;51.984;5.928;2023-02-28T06:12:36;3.65;;;1.38;;
39022;SDS011;25908;51.984;5.928;2023-02-28T06:15:02;3.60;;;1.30;;
39022;SDS011;25908;51.984;5.928;2023-02-28T06:17:28;1.85;;;1.20;;
39022;SDS011;25908;51.984;5.928;2023-02-28T06:19:54;3.22;;;1.55;;
39022;SDS011;25908;51.984;5.928;2023-02-28T06:22:20;4.45;;;1.80;;
39022;SDS011;25908;51.984;5.928;2023-02-28T06:24:45;4.75;;;1.48;;
39022;SDS011;25908;51.984;5.928;2023-02-28T06:27:11;3.42;;;1.35;;
39022;SDS011;25908;51.984;5.928;2023-02-28T06:29:36;5.22;;;1.83;;
39022;SDS011;25908;51.984;5.928;2023-02-28T06:32:04;5.30;;;1.90;;
39022;SDS011;25908;51.984;5.928;2023-02-28T06:34:30;3.38;;;1.67;;
39022;SDS011;25908;51.984;5.928;2023-02-28T06:36:56;4.97;;;1.40;;
39022;SDS011;25908;51.984;5.928;2023-02-28T06:39:22;3.10;;;1.40;;
39022;SDS011;25908;51.984;5.928;2023-02-28T06:41:47;4.45;;;1.73;;
39022;SDS011;25908;51.984;5.928;2023-02-28T06:44:14;3.80;;;1.55;;
39022;SDS011;25908;51.984;5.928;2023-02-28T06:46:41;4.80;;;1.40;;
39022;SDS011;25908;51.984;5.928;2023-02-28T06:49:08;4.20;;;1.40;;
39022;SDS011;25908;51.984;5.928;2023-02-28T06:51:34;3.35;;;1.83;;
39022;SDS011;25908;51.984;5.928;2023-02-28T06:54:01;6.05;;;1.77;;
39022;SDS011;25908;51.984;5.928;2023-02-28T06:56:27;3.63;;;1.60;;
39022;SDS011;25908;51.984;5.928;2023-02-28T06:58:52;3.35;;;1.40;;
39022;SDS011;25908;51.984;5.928;2023-02-28T07:01:18;5.65;;;1.90;;
39022;SDS011;25908;51.984;5.928;2023-02-28T07:03:44;3.35;;;1.50;;
39022;SDS011;25908;51.984;5.928;2023-02-28T07:06:10;3.65;;;1.60;;
39022;SDS011;25908;51.984;5.928;2023-02-28T07:08:36;3.70;;;1.75;;
39022;SDS011;25908;51.984;5.928;2023-02-28T07:11:02;4.88;;;2.00;;
39022;SDS011;25908;51.984;5.928;2023-02-28T07:13:29;7.43;;;2.03;;
39022;SDS011;25908;51.984;5.928;2023-02-28T07:15:55;3.08;;;1.52;;
39022;SDS011;25908;51.984;5.928;2023-02-28T07:18:26;6.90;;;2.38;;
39022;SDS011;25908;51.984;5.928;2023-02-28T07:20:52;4.68;;;1.65;;
39022;SDS011;25908;51.984;5.928;2023-02-28T07:23:18;2.97;;;1.90;;
39022;SDS011;25908;51.984;5.928;2023-02-28T07:25:44;6.25;;;2.35;;
39022;SDS011;25908;51.984;5.928;2023-02-28T07:28:10;5.80;;;2.20;;
39022;SDS011;25908;51.984;5.928;2023-02-28T07:30:37;5.13;;;2.38;;
39022;SDS011;25908;51.984;5.928;2023-02-28T07:33:03;4.95;;;2.30;;
39022;SDS011;25908;51.984;5.928;2023-02-28T07:35:28;5.18;;;2.40;;
39022;SDS011;25908;51.984;5.928;2023-02-28T07:37:54;5.05;;;1.92;;
39022;SDS011;25908;51.984;5.928;2023-02-28T07:40:21;3.75;;;2.20;;
39022;SDS011;25908;51.984;5.928;2023-02-28T07:42:47;3.97;;;1.95;;
39022;SDS011;25908;51.984;5.928;2023-02-28T07:45:12;6.28;;;2.60;;
39022;SDS011;25908;51.984;5.928;2023-02-28T07:47:38;5.53;;;2.70;;
39022;SDS011;25908;51.984;5.928;2023-02-28T07:50:05;4.40;;;2.35;;
39022;SDS011;25908;51.984;5.928;2023-02-28T07:52:31;6.55;;;2.95;;
39022;SDS011;25908;51.984;5.928;2023-02-28T07:54:57;5.93;;;2.67;;
39022;SDS011;25908;51.984;5.928;2023-02-28T07:57:23;6.32;;;2.92;;
39022;SDS011;25908;51.984;5.928;2023-02-28T07:59:48;5.85;;;2.40;;
39022;SDS011;25908;51.984;5.928;2023-02-28T08:02:15;4.78;;;2.38;;
39022;SDS011;25908;51.984;5.928;2023-02-28T08:04:42;4.13;;;2.28;;
39022;SDS011;25908;51.984;5.928;2023-02-28T08:07:08;4.65;;;2.20;;
39022;SDS011;25908;51.984;5.928;2023-02-28T08:09:36;3.95;;;2.00;;
39022;SDS011;25908;51.984;5.928;2023-02-28T08:12:02;3.40;;;1.70;;
39022;SDS011;25908;51.984;5.928;2023-02-28T08:14:27;3.67;;;2.15;;
39022;SDS011;25908;51.984;5.928;2023-02-28T08:16:53;4.13;;;1.90;;
39022;SDS011;25908;51.984;5.928;2023-02-28T08:19:19;4.72;;;2.95;;
39022;SDS011;25908;51.984;5.928;2023-02-28T08:21:44;6.60;;;2.53;;
39022;SDS011;25908;51.984;5.928;2023-02-28T08:24:10;5.53;;;2.38;;
39022;SDS011;25908;51.984;5.928;2023-02-28T08:26:35;5.00;;;2.25;;
39022;SDS011;25908;51.984;5.928;2023-02-28T08:29:01;4.68;;;2.75;;
39022;SDS011;25908;51.984;5.928;2023-02-28T08:31:27;3.47;;;1.77;;
39022;SDS011;25908;51.984;5.928;2023-02-28T08:33:52;4.63;;;2.45;;
39022;SDS011;25908;51.984;5.928;2023-02-28T08:36:20;5.75;;;2.33;;
39022;SDS011;25908;51.984;5.928;2023-02-28T08:38:46;4.07;;;1.73;;
39022;SDS011;25908;51.984;5.928;2023-02-28T08:41:12;4.30;;;2.47;;
39022;SDS011;25908;51.984;5.928;2023-02-28T08:43:38;2.67;;;1.90;;
39022;SDS011;25908;51.984;5.928;2023-02-28T08:46:04;4.30;;;1.92;;
39022;SDS011;25908;51.984;5.928;2023-02-28T08:48:32;4.40;;;2.00;;
39022;SDS011;25908;51.984;5.928;2023-02-28T08:51:03;5.03;;;1.42;;
39022;SDS011;25908;51.984;5.928;2023-02-28T08:53:31;3.83;;;1.70;;
39022;SDS011;25908;51.984;5.928;2023-02-28T08:56:04;4.40;;;2.15;;
39022;SDS011;25908;51.984;5.928;2023-02-28T08:58:31;4.28;;;1.70;;
39022;SDS011;25908;51.984;5.928;2023-02-28T09:00:59;5.03;;;1.75;;
39022;SDS011;25908;51.984;5.928;2023-02-28T09:03:25;2.10;;;1.40;;
39022;SDS011;25908;51.984;5.928;2023-02-28T09:05:59;2.47;;;1.48;;
39022;SDS011;25908;51.984;5.928;2023-02-28T09:08:26;2.55;;;1.33;;
39022;SDS011;25908;51.984;5.928;2023-02-28T09:10:53;4.28;;;1.50;;
39022;SDS011;25908;51.984;5.928;2023-02-28T09:13:20;2.38;;;1.45;;
39022;SDS011;25908;51.984;5.928;2023-02-28T09:15:46;5.45;;;1.75;;
39022;SDS011;25908;51.984;5.928;2023-02-28T09:18:12;4.50;;;2.05;;
39022;SDS011;25908;51.984;5.928;2023-02-28T09:20:39;3.78;;;1.33;;
39022;SDS011;25908;51.984;5.928;2023-02-28T09:23:09;3.78;;;1.25;;
39022;SDS011;25908;51.984;5.928;2023-02-28T09:25:37;2.83;;;1.55;;
39022;SDS011;25908;51.984;5.928;2023-02-28T09:28:02;1.83;;;0.93;;
39022;SDS011;25908;51.984;5.928;2023-02-28T09:30:28;1.70;;;1.15;;
39022;SDS011;25908;51.984;5.928;2023-02-28T09:32:55;4.40;;;1.52;;
39022;SDS011;25908;51.984;5.928;2023-02-28T09:35:21;2.03;;;1.17;;
39022;SDS011;25908;51.984;5.928;2023-02-28T09:37:49;2.88;;;1.40;;
39022;SDS011;25908;51.984;5.928;2023-02-28T09:40:16;2.92;;;1.23;;
39022;SDS011;25908;51.984;5.928;2023-02-28T09:42:45;4.28;;;1.52;;
39022;SDS011;25908;51.984;5.928;2023-02-28T09:45:16;3.05;;;1.40;;
39022;SDS011;25908;51.984;5.928;2023-02-28T09:47:59;4.18;;;1.40;;
39022;SDS011;25908;51.984;5.928;2023-02-28T09:53:47;3.55;;;1.58;;
39022;SDS011;25908;51.984;5.928;2023-02-28T09:56:01;3.13;;;1.27;;
39022;SDS011;25908;51.984;5.928;2023-02-28T10:07:30;2.83;;;1.63;;
39022;SDS011;25908;51.984;5.928;2023-02-28T10:10:21;4.03;;;1.60;;
39022;SDS011;25908;51.984;5.928;2023-02-28T10:13:31;3.05;;;1.33;;
39022;SDS011;25908;51.984;5.928;2023-02-28T10:18:40;2.25;;;1.05;;
39022;SDS011;25908;51.984;5.928;2023-02-28T10:21:35;2.42;;;0.90;;
39022;SDS011;25908;51.984;5.928;2023-02-28T10:27:18;4.93;;;2.03;;
39022;SDS011;25908;51.984;5.928;2023-02-28T10:29:50;2.92;;;1.60;;
39022;SDS011;25908;51.984;5.928;2023-02-28T10:32:18;3.72;;;1.35;;
39022;SDS011;25908;51.984;5.928;2023-02-28T10:34:50;1.45;;;1.05;;
39022;SDS011;25908;51.984;5.928;2023-02-28T10:37:31;3.40;;;1.38;;
39022;SDS011;25908;51.984;5.928;2023-02-28T10:40:03;1.90;;;1.00;;
39022;SDS011;25908;51.984;5.928;2023-02-28T10:42:31;4.50;;;1.40;;
39022;SDS011;25908;51.984;5.928;2023-02-28T10:47:32;6.15;;;1.60;;
39022;SDS011;25908;51.984;5.928;2023-02-28T10:50:01;3.17;;;1.10;;
39022;SDS011;25908;51.984;5.928;2023-02-28T10:52:37;4.93;;;1.45;;
39022;SDS011;25908;51.984;5.928;2023-02-28T10:55:21;3.28;;;1.40;;
39022;SDS011;25908;51.984;5.928;2023-02-28T10:57:48;3.15;;;1.40;;
39022;SDS011;25908;51.984;5.928;2023-02-28T11:00:16;2.55;;;1.40;;
39022;SDS011;25908;51.984;5.928;2023-02-28T11:02:44;2.25;;;1.25;;
39022;SDS011;25908;51.984;5.928;2023-02-28T11:05:30;4.80;;;1.70;;
39022;SDS011;25908;51.984;5.928;2023-02-28T11:08:11;2.70;;;1.35;;
39022;SDS011;25908;51.984;5.928;2023-02-28T11:10:39;3.55;;;1.58;;
39022;SDS011;25908;51.984;5.928;2023-02-28T11:13:15;3.35;;;1.38;;
39022;SDS011;25908;51.984;5.928;2023-02-28T11:15:45;4.30;;;1.85;;
39022;SDS011;25908;51.984;5.928;2023-02-28T11:18:27;4.32;;;1.23;;
39022;SDS011;25908;51.984;5.928;2023-02-28T11:21:00;2.90;;;1.50;;
39022;SDS011;25908;51.984;5.928;2023-02-28T11:23:28;3.88;;;1.35;;
39022;SDS011;25908;51.984;5.928;2023-02-28T11:25:58;3.05;;;1.15;;
39022;SDS011;25908;51.984;5.928;2023-02-28T11:28:35;3.70;;;1.52;;
39022;SDS011;25908;51.984;5.928;2023-02-28T11:31:21;1.77;;;1.38;;
39022;SDS011;25908;51.984;5.928;2023-02-28T11:33:50;3.05;;;1.30;;
39022;SDS011;25908;51.984;5.928;2023-02-28T11:38:46;4.38;;;1.65;;
39022;SDS011;25908;51.984;5.928;2023-02-28T11:43:46;3.47;;;1.35;;
39022;SDS011;25908;51.984;5.928;2023-02-28T11:52:00;2.42;;;1.40;;
39022;SDS011;25908;51.984;5.928;2023-02-28T11:54:52;2.58;;;1.23;;
39022;SDS011;25908;51.984;5.928;2023-02-28T11:57:49;2.17;;;1.50;;
39022;SDS011;25908;51.984;5.928;2023-02-28T12:16:48;3.92;;;1.70;;
39022;SDS011;25908;51.984;5.928;2023-02-28T12:19:21;3.65;;;1.80;;
39022;SDS011;25908;51.984;5.928;2023-02-28T12:22:11;3.88;;;1.48;;
39022;SDS011;25908;51.984;5.928;2023-02-28T12:27:28;3.13;;;1.95;;
39022;SDS011;25908;51.984;5.928;2023-02-28T12:30:17;3.47;;;1.67;;
39022;SDS011;25908;51.984;5.928;2023-02-28T12:32:48;3.40;;;1.63;;
39022;SDS011;25908;51.984;5.928;2023-02-28T12:35:25;5.25;;;2.00;;
39022;SDS011;25908;51.984;5.928;2023-02-28T12:38:03;3.17;;;1.83;;
39022;SDS011;25908;51.984;5.928;2023-02-28T12:40:44;4.43;;;2.17;;
39022;SDS011;25908;51.984;5.928;2023-02-28T12:43:16;5.60;;;2.05;;
39022;SDS011;25908;51.984;5.928;2023-02-28T12:45:45;4.80;;;1.90;;
39022;SDS011;25908;51.984;5.928;2023-02-28T12:48:29;3.25;;;1.75;;
39022;SDS011;25908;51.984;5.928;2023-02-28T12:51:02;4.85;;;2.00;;
39022;SDS011;25908;51.984;5.928;2023-02-28T12:53:38;2.58;;;1.65;;
39022;SDS011;25908;51.984;5.928;2023-02-28T12:56:12;4.90;;;1.67;;
39022;SDS011;25908;51.984;5.928;2023-02-28T12:58:42;5.05;;;2.03;;
39022;SDS011;25908;51.984;5.928;2023-02-28T13:09:14;4.35;;;1.55;;
39022;SDS011;25908;51.984;5.928;2023-02-28T13:14:19;4.45;;;1.65;;
39022;SDS011;25908;51.984;5.928;2023-02-28T13:19:35;3.38;;;1.88;;
39022;SDS011;25908;51.984;5.928;2023-02-28T13:22:19;3.53;;;1.60;;
39022;SDS011;25908;51.984;5.928;2023-02-28T13:25:02;3.95;;;1.35;;
39022;SDS011;25908;51.984;5.928;2023-02-28T13:27:57;4.07;;;1.65;;
39022;SDS011;25908;51.984;5.928;2023-02-28T13:33:28;3.90;;;1.80;;
39022;SDS011;25908;51.984;5.928;2023-02-28T13:36:40;2.75;;;1.67;;
39022;SDS011;25908;51.984;5.928;2023-02-28T13:38:44;2.83;;;1.40;;
39022;SDS011;25908;51.984;5.928;2023-02-28T13:43:59;3.63;;;2.00;;
39022;SDS011;25908;51.984;5.928;2023-02-28T13:46:36;3.17;;;1.98;;
39022;SDS011;25908;51.984;5.928;2023-02-28T13:51:47;3.95;;;1.60;;
39022;SDS011;25908;51.984;5.928;2023-02-28T14:07:22;3.60;;;1.67;;
39022;SDS011;25908;51.984;5.928;2023-02-28T14:09:55;4.50;;;1.85;;
39022;SDS011;25908;51.984;5.928;2023-02-28T14:15:25;3.85;;;1.67;;
39022;SDS011;25908;51.984;5.928;2023-02-28T14:17:58;3.75;;;1.73;;
39022;SDS011;25908;51.984;5.928;2023-02-28T14:20:27;3.08;;;1.58;;
39022;SDS011;25908;51.984;5.928;2023-02-28T14:23:06;2.33;;;1.75;;
39022;SDS011;25908;51.984;5.928;2023-02-28T14:25:58;3.50;;;1.70;;
39022;SDS011;25908;51.984;5.928;2023-02-28T14:28:58;2.75;;;1.50;;
39022;SDS011;25908;51.984;5.928;2023-02-28T14:34:34;3.38;;;1.70;;
39022;SDS011;25908;51.984;5.928;2023-02-28T14:37:15;3.42;;;1.90;;
39022;SDS011;25908;51.984;5.928;2023-02-28T14:39:51;4.05;;;2.20;;
39022;SDS011;25908;51.984;5.928;2023-02-28T14:42:27;3.42;;;1.60;;
39022;SDS011;25908;51.984;5.928;2023-02-28T14:44:54;4.05;;;1.80;;
39022;SDS011;25908;51.984;5.928;2023-02-28T14:47:21;3.42;;;1.90;;
39022;SDS011;25908;51.984;5.928;2023-02-28T14:49:50;3.85;;;2.05;;
39022;SDS011;25908;51.984;5.928;2023-02-28T14:55:29;3.35;;;1.85;;
39022;SDS011;25908;51.984;5.928;2023-02-28T14:57:43;3.08;;;1.45;;
39022;SDS011;25908;51.984;5.928;2023-02-28T15:00:23;3.58;;;1.70;;
39022;SDS011;25908;51.984;5.928;2023-02-28T15:02:54;3.28;;;1.40;;
39022;SDS011;25908;51.984;5.928;2023-02-28T15:08:30;4.68;;;1.50;;
39022;SDS011;25908;51.984;5.928;2023-02-28T15:10:59;2.60;;;1.60;;
39022;SDS011;25908;51.984;5.928;2023-02-28T15:13:30;9.40;;;2.00;;
39022;SDS011;25908;51.984;5.928;2023-02-28T15:16:04;3.88;;;1.45;;
39022;SDS011;25908;51.984;5.928;2023-02-28T15:19:36;4.20;;;1.55;;
39022;SDS011;25908;51.984;5.928;2023-02-28T15:21:36;3.22;;;1.45;;
39022;SDS011;25908;51.984;5.928;2023-02-28T15:24:14;4.70;;;1.42;;
39022;SDS011;25908;51.984;5.928;2023-02-28T15:27:00;4.38;;;1.52;;
39022;SDS011;25908;51.984;5.928;2023-02-28T15:29:32;2.45;;;1.30;;
39022;SDS011;25908;51.984;5.928;2023-02-28T15:32:07;4.82;;;1.50;;
39022;SDS011;25908;51.984;5.928;2023-02-28T15:34:44;3.90;;;1.80;;
39022;SDS011;25908;51.984;5.928;2023-02-28T15:50:40;2.75;;;1.38;;
39022;SDS011;25908;51.984;5.928;2023-02-28T15:53:10;2.85;;;1.50;;
39022;SDS011;25908;51.984;5.928;2023-02-28T15:55:42;3.03;;;1.60;;
39022;SDS011;25908;51.984;5.928;2023-02-28T15:58:08;5.32;;;1.70;;
39022;SDS011;25908;51.984;5.928;2023-02-28T16:00:37;4.13;;;1.60;;
39022;SDS011;25908;51.984;5.928;2023-02-28T16:03:22;3.78;;;1.60;;
39022;SDS011;25908;51.984;5.928;2023-02-28T16:08:55;3.55;;;2.00;;
39022;SDS011;25908;51.984;5.928;2023-02-28T16:11:21;4.75;;;1.75;;
39022;SDS011;25908;51.984;5.928;2023-02-28T16:13:47;3.22;;;1.63;;
39022;SDS011;25908;51.984;5.928;2023-02-28T16:16:18;3.45;;;1.40;;
39022;SDS011;25908;51.984;5.928;2023-02-28T16:18:46;1.92;;;1.30;;
39022;SDS011;25908;51.984;5.928;2023-02-28T16:21:12;4.03;;;2.15;;
39022;SDS011;25908;51.984;5.928;2023-02-28T16:23:37;4.80;;;1.92;;
39022;SDS011;25908;51.984;5.928;2023-02-28T16:26:03;3.70;;;1.90;;
39022;SDS011;25908;51.984;5.928;2023-02-28T16:28:30;3.83;;;1.70;;
39022;SDS011;25908;51.984;5.928;2023-02-28T16:30:59;3.63;;;2.05;;
39022;SDS011;25908;51.984;5.928;2023-02-28T16:33:27;3.45;;;1.75;;
39022;SDS011;25908;51.984;5.928;2023-02-28T16:35:56;4.72;;;2.50;;
39022;SDS011;25908;51.984;5.928;2023-02-28T16:38:22;5.47;;;2.70;;
39022;SDS011;25908;51.984;5.928;2023-02-28T16:40:50;4.35;;;1.98;;
39022;SDS011;25908;51.984;5.928;2023-02-28T16:43:17;4.05;;;2.40;;
39022;SDS011;25908;51.984;5.928;2023-02-28T16:45:47;3.63;;;2.05;;
39022;SDS011;25908;51.984;5.928;2023-02-28T16:48:16;6.95;;;2.22;;
39022;SDS011;25908;51.984;5.928;2023-02-28T16:50:42;3.55;;;2.00;;
39022;SDS011;25908;51.984;5.928;2023-02-28T16:53:09;4.15;;;2.15;;
39022;SDS011;25908;51.984;5.928;2023-02-28T16:55:35;3.83;;;2.10;;
39022;SDS011;25908;51.984;5.928;2023-02-28T16:58:01;4.25;;;2.38;;
39022;SDS011;25908;51.984;5.928;2023-02-28T17:00:32;5.18;;;2.42;;
39022;SDS011;25908;51.984;5.928;2023-02-28T17:02:58;6.85;;;3.28;;
39022;SDS011;25908;51.984;5.928;2023-02-28T17:05:25;4.55;;;2.85;;
39022;SDS011;25908;51.984;5.928;2023-02-28T17:07:53;5.68;;;3.22;;
39022;SDS011;25908;51.984;5.928;2023-02-28T17:10:20;5.30;;;3.50;;
39022;SDS011;25908;51.984;5.928;2023-02-28T17:12:48;6.05;;;4.13;;
39022;SDS011;25908;51.984;5.928;2023-02-28T17:15:14;5.82;;;3.97;;
39022;SDS011;25908;51.984;5.928;2023-02-28T17:17:42;10.23;;;6.40;;
39022;SDS011;25908;51.984;5.928;2023-02-28T17:20:14;10.50;;;6.57;;
39022;SDS011;25908;51.984;5.928;2023-02-28T17:22:42;7.47;;;5.03;;
39022;SDS011;25908;51.984;5.928;2023-02-28T17:25:08;10.40;;;5.30;;
39022;SDS011;25908;51.984;5.928;2023-02-28T17:27:34;13.35;;;9.95;;
39022;SDS011;25908;51.984;5.928;2023-02-28T17:30:00;11.02;;;4.97;;
39022;SDS011;25908;51.984;5.928;2023-02-28T17:32:26;6.30;;;3.58;;
39022;SDS011;25908;51.984;5.928;2023-02-28T17:34:52;8.32;;;3.42;;
39022;SDS011;25908;51.984;5.928;2023-02-28T17:37:18;5.93;;;3.28;;